Time;durP1;ratioP1;P1;durP2;ratioP2;P2;SDS_P1;SDS_P2;PMS_P1;PMS_P2;Temp;Humidity;BMP_temperature;BMP_pressure;BME280_temperature;BME280_humidity;BME280_pressure;Samples;Min_cycle;Max_cycle;Signal;HPM_P1;HPM_P2
2023/02/16 00:00:44;;;;;;;59.67;29.27;;;;;;;3.88;100.00;100127.03;5088882;28;20044;-93
2023/02/16 00:03:12;;;;;;;60.45;29.13;;;;;;;3.81;100.00;100105.81;5088317;28;20045;-92
2023/02/16 00:05:38;;;;;;;59.22;29.70;;;;;;;3.78;100.00;100111.91;5088972;28;20052;-94
2023/02/16 00:08:04;;;;;;;58.63;29.23;;;;;;;3.69;100.00;100099.44;5089023;28;20041;-93
2023/02/16 00:10:32;;;;;;;57.72;29.15;;;;;;;3.72;100.00;100111.75;5088922;28;20055;-93
2023/02/16 00:15:58;;;;;;;65.70;30.63;;;;;;;3.71;100.00;100110.00;5089209;27;20404;-93
2023/02/16 00:18:24;;;;;;;64.38;32.58;;;;;;;3.55;100.00;100094.72;5089345;28;20079;-93
2023/02/16 00:20:50;;;;;;;73.53;31.30;;;;;;;3.55;100.00;100099.97;5088936;28;20072;-93
2023/02/16 00:23:16;;;;;;;74.07;33.83;;;;;;;3.48;100.00;100091.94;5089433;28;20036;-94
2023/02/16 00:25:42;;;;;;;63.75;33.40;;;;;;;3.48;100.00;100106.84;5088849;28;20498;-94
2023/02/16 00:28:14;;;;;;;62.70;30.20;;;;;;;3.34;100.00;100085.50;5089265;28;20481;-92
2023/02/16 00:30:39;;;;;;;60.15;29.52;;;;;;;3.44;100.00;100108.50;5088744;28;20073;-93
2023/02/16 00:33:14;;;;;;;63.65;29.40;;;;;;;3.26;100.00;100106.34;5089799;28;20123;-92
2023/02/16 00:35:40;;;;;;;65.38;29.45;;;;;;;3.06;100.00;100074.31;5088226;28;20037;-95
2023/02/16 00:38:05;;;;;;;60.25;29.35;;;;;;;3.05;100.00;100069.91;5088961;28;20063;-92
2023/02/16 00:40:32;;;;;;;63.85;29.92;;;;;;;3.22;100.00;100108.84;5089199;28;20389;-92
2023/02/16 00:43:00;;;;;;;61.53;30.55;;;;;;;3.08;100.00;100088.38;5087974;28;20043;-93
2023/02/16 00:45:25;;;;;;;65.28;30.60;;;;;;;3.22;100.00;100108.84;5088461;28;20040;-93
2023/02/16 00:47:53;;;;;;;68.68;31.83;;;;;;;3.14;100.00;100098.13;5089059;28;20062;-94
2023/02/16 00:50:24;;;;;;;74.53;33.65;;;;;;;3.20;100.00;100103.56;5089280;28;20041;-93
2023/02/16 00:52:51;;;;;;;63.97;31.77;;;;;;;3.12;100.00;100088.44;5087533;28;20094;-93
2023/02/16 00:55:18;;;;;;;70.63;32.60;;;;;;;3.20;100.00;100100.91;5088968;28;20036;-93
2023/02/16 00:57:49;;;;;;;63.28;31.98;;;;;;;3.11;100.00;100090.19;5087126;28;20036;-95
2023/02/16 01:00:19;;;;;;;68.15;31.10;;;;;;;3.17;100.00;100107.88;5088216;28;20040;-94
2023/02/16 01:02:48;;;;;;;62.70;29.58;;;;;;;3.13;100.00;100103.38;5088884;28;20555;-93
2023/02/16 01:05:14;;;;;;;64.40;28.67;;;;;;;2.94;100.00;100081.91;5087542;28;20119;-93
2023/02/16 01:13:45;;;;;;;63.92;28.50;;;;;;;3.02;100.00;100104.00;5131754;27;20378;-93
2023/02/16 01:16:16;;;;;;;58.05;28.38;;;;;;;3.01;100.00;100111.84;5129668;28;20507;-94
2023/02/16 01:18:43;;;;;;;64.72;28.35;;;;;;;2.88;100.00;100089.63;5129585;28;20043;-92
2023/02/16 01:21:09;;;;;;;61.47;27.55;;;;;;;2.93;100.00;100097.63;5130441;28;20032;-93
2023/02/16 01:23:35;;;;;;;60.15;27.25;;;;;;;2.86;100.00;100089.59;5131036;28;20040;-92
2023/02/16 01:26:01;;;;;;;63.47;27.30;;;;;;;2.88;100.00;100092.25;5130292;27;20438;-92
2023/02/16 01:28:27;;;;;;;61.40;27.35;;;;;;;2.92;99.99;100087.97;5130402;28;20047;-92
2023/02/16 01:30:55;;;;;;;64.53;28.10;;;;;;;2.91;99.74;100080.91;5128275;28;20050;-93
2023/02/16 01:33:21;;;;;;;63.00;28.20;;;;;;;2.74;100.00;100068.28;5130277;28;20035;-92
2023/02/16 01:35:54;;;;;;;66.30;27.63;;;;;;;2.68;100.00;100074.25;5130353;28;20032;-92
2023/02/16 01:38:24;;;;;;;61.40;26.92;;;;;;;2.64;100.00;100064.50;5130319;27;20408;-92
2023/02/16 01:40:58;;;;;;;68.53;30.25;;;;;;;2.73;100.00;100084.84;5130435;28;20047;-90
2023/02/16 01:43:29;;;;;;;69.20;28.58;;;;;;;2.71;100.00;100090.94;5128594;28;20067;-92
2023/02/16 01:46:04;;;;;;;67.65;28.92;;;;;;;2.67;100.00;100074.22;5131037;27;20502;-93
2023/02/16 01:48:31;;;;;;;66.93;28.50;;;;;;;2.70;100.00;100086.53;5129865;28;20047;-92
2023/02/16 01:51:04;;;;;;;65.80;28.38;;;;;;;2.58;100.00;100072.25;5130180;28;20047;-93
2023/02/16 01:53:34;;;;;;;65.10;29.02;;;;;;;2.47;100.00;100061.47;5128860;28;20035;-93
2023/02/16 01:56:03;;;;;;;72.43;30.10;;;;;;;2.56;100.00;100073.94;5130266;28;20947;-93
2023/02/16 01:58:35;;;;;;;61.00;27.92;;;;;;;2.49;100.00;100055.34;5130009;28;20035;-93
2023/02/16 02:01:45;;;;;;;63.35;27.80;;;;;;;2.56;100.00;100087.06;5129347;28;20040;-93
2023/02/16 02:07:27;;;;;;;78.55;29.92;;;;;;;2.52;100.00;100082.59;5107227;27;20366;-94
2023/02/16 02:10:01;;;;;;;71.10;32.30;;;;;;;2.45;100.00;100075.38;5095521;28;20071;-92
2023/02/16 02:12:33;;;;;;;75.13;30.55;;;;;;;2.44;100.00;100081.50;5090620;28;20063;-92
2023/02/16 02:14:59;;;;;;;66.53;30.85;;;;;;;2.37;100.00;100071.69;5095114;28;20036;-92
2023/02/16 02:17:26;;;;;;;67.03;29.73;;;;;;;2.20;100.00;100058.97;5093310;28;20036;-94
2023/02/16 02:20:03;;;;;;;70.13;30.25;;;;;;;2.12;100.00;100064.88;5097543;28;20047;-94
2023/02/16 02:26:58;;;;;;;75.30;34.47;;;;;;;2.02;100.00;100100.47;5111159;27;20369;-92
2023/02/16 02:29:46;;;;;;;81.43;34.30;;;;;;;1.97;100.00;100086.31;5109731;28;20123;-95
2023/02/16 02:32:20;;;;;;;73.38;32.97;;;;;;;1.95;100.00;100098.50;5109209;28;20089;-90
2023/02/16 02:34:58;;;;;;;83.35;35.67;;;;;;;1.79;100.00;100073.56;5109923;28;20042;-91
2023/02/16 02:37:37;;;;;;;85.28;36.28;;;;;;;1.78;100.00;100067.44;5107879;28;20035;-91
2023/02/16 02:40:10;;;;;;;86.45;33.97;;;;;;;1.79;100.00;100071.81;5108719;28;20508;-93
2023/02/16 02:42:43;;;;;;;87.00;34.03;;;;;;;1.79;100.00;100069.19;5109829;28;20039;-94
2023/02/16 02:45:16;;;;;;;78.90;32.55;;;;;;;1.68;100.00;100044.41;5108410;28;20036;-91
2023/02/16 02:47:44;;;;;;;77.85;33.10;;;;;;;1.79;100.00;100071.81;5110511;28;20044;-91
2023/02/16 02:50:36;;;;;;;84.68;33.92;;;;;;;1.78;100.00;100079.66;5109772;28;20044;-94
2023/02/16 02:53:04;;;;;;;80.72;32.40;;;;;;;1.65;100.00;100062.69;5108775;28;20401;-92
2023/02/16 03:01:38;;;;;;;74.75;31.58;;;;;;;1.61;100.00;100063.44;5105480;27;20875;-94
2023/02/16 03:04:06;;;;;;;76.13;32.60;;;;;;;1.61;100.00;100071.28;5090941;28;20075;-93
2023/02/16 03:06:37;;;;;;;82.18;34.58;;;;;;;1.46;100.00;100057.72;5092808;28;20139;-92
2023/02/16 03:09:07;;;;;;;95.80;36.85;;;;;;;1.49;100.00;100077.03;5092160;28;20127;-92
2023/02/16 03:14:35;;;;;;;86.15;33.55;;;;;;;1.54;100.00;100072.84;5090980;27;20358;-94
2023/02/16 03:29:21;;;;;;;89.13;35.42;;;;;;;1.36;100.00;100059.16;5103471;27;20394;-94
2023/02/16 03:31:48;;;;;;;82.22;33.75;;;;;;;1.46;100.00;100081.31;5101090;28;20052;-92
2023/02/16 03:34:14;;;;;;;95.72;35.22;;;;;;;1.42;100.00;100075.97;5069446;28;20449;-94
2023/02/16 03:36:42;;;;;;;90.53;36.50;;;;;;;1.40;100.00;100072.41;5069710;28;20517;-94
2023/02/16 03:39:09;;;;;;;89.15;33.72;;;;;;;1.38;100.00;100067.97;5069744;28;20041;-93
2023/02/16 03:41:39;;;;;;;84.47;32.72;;;;;;;1.36;100.00;100065.28;5072968;28;20289;-94
2023/02/16 03:44:05;;;;;;;85.20;32.72;;;;;;;1.38;100.00;100075.84;5069348;28;20037;-93
2023/02/16 03:46:33;;;;;;;84.90;34.90;;;;;;;1.25;100.00;100065.81;5068016;28;20051;-93
2023/02/16 03:48:59;;;;;;;84.60;33.35;;;;;;;1.31;100.00;100076.50;5068996;28;20051;-93
2023/02/16 03:51:24;;;;;;;74.78;31.30;;;;;;;1.32;100.00;100086.13;5069428;28;20040;-92
2023/02/16 03:53:50;;;;;;;86.38;34.25;;;;;;;1.29;100.00;100086.91;5069538;28;20045;-92
2023/02/16 03:56:16;;;;;;;79.18;32.30;;;;;;;1.33;100.00;100093.16;5068653;28;20041;-92
2023/02/16 03:58:42;;;;;;;74.05;32.08;;;;;;;1.30;100.00;100083.47;5069794;28;20394;-93
2023/02/16 04:01:08;;;;;;;84.07;33.22;;;;;;;1.23;100.00;100066.63;5068534;28;20033;-93
2023/02/16 04:03:35;;;;;;;79.10;33.70;;;;;;;1.27;100.00;100080.75;5068964;28;20228;-93
2023/02/16 04:06:01;;;;;;;86.60;34.75;;;;;;;1.19;100.00;100070.03;5069310;28;20044;-93
2023/02/16 04:08:27;;;;;;;89.95;35.50;;;;;;;1.21;100.00;100067.44;5065466;28;20048;-94
2023/02/16 04:10:55;;;;;;;92.68;34.85;;;;;;;1.26;100.00;100073.72;5069405;28;20052;-94
2023/02/16 04:13:21;;;;;;;84.97;34.65;;;;;;;1.33;100.00;100074.81;5069186;28;20497;-93
2023/02/16 04:15:47;;;;;;;95.80;35.65;;;;;;;1.27;100.00;100069.38;5068484;28;20036;-93
2023/02/16 04:18:13;;;;;;;92.20;36.10;;;;;;;1.19;100.00;100056.03;5068842;28;20520;-92
2023/02/16 04:20:41;;;;;;;87.40;35.75;;;;;;;1.36;100.00;100094.13;5067292;28;20110;-94
2023/02/16 04:23:07;;;;;;;90.97;36.78;;;;;;;1.27;100.00;100072.88;5070003;28;20044;-94
2023/02/16 04:25:33;;;;;;;92.07;37.72;;;;;;;1.26;100.00;100092.06;5068686;28;20037;-93
2023/02/16 04:27:59;;;;;;;101.63;39.10;;;;;;;1.17;100.00;100068.19;5068570;28;20077;-94
2023/02/16 04:30:27;;;;;;;99.85;37.42;;;;;;;1.25;100.00;100098.13;5067443;28;20048;-93
2023/02/16 04:32:53;;;;;;;96.28;37.40;;;;;;;1.16;100.00;100087.38;5068649;28;20048;-93
2023/02/16 04:35:19;;;;;;;101.97;37.03;;;;;;;1.02;100.00;100079.09;5068892;28;20106;-95
2023/02/16 04:37:47;;;;;;;102.57;36.70;;;;;;;0.90;100.00;100079.56;5068647;28;20071;-92
2023/02/16 04:40:15;;;;;;;95.05;36.60;;;;;;;0.98;100.00;100109.53;5052858;28;20552;-94
2023/02/16 04:42:42;;;;;;;106.30;37.55;;;;;;;0.79;100.00;100092.31;5055127;28;20045;-93
2023/02/16 04:45:08;;;;;;;103.10;37.42;;;;;;;0.82;100.00;100095.03;5055155;28;20073;-93
2023/02/16 04:47:34;;;;;;;86.57;37.80;;;;;;;0.79;100.00;100101.91;5055253;28;20047;-93
2023/02/16 04:50:00;;;;;;;108.75;39.58;;;;;;;0.66;100.00;100081.38;5055399;28;20037;-93
2023/02/16 04:52:26;;;;;;;115.57;39.75;;;;;;;0.59;100.00;100075.94;5054872;28;20063;-94
2023/02/16 04:54:53;;;;;;;111.60;41.30;;;;;;;0.68;100.00;100106.75;5054885;28;20044;-93
2023/02/16 04:57:21;;;;;;;107.38;39.35;;;;;;;0.64;100.00;100102.25;5054663;28;20459;-95
2023/02/16 04:59:47;;;;;;;102.72;38.35;;;;;;;0.63;100.00;100108.34;5054983;28;20045;-94
2023/02/16 05:02:13;;;;;;;113.15;40.15;;;;;;;0.52;100.00;100088.75;5054423;28;20094;-93
2023/02/16 05:04:38;;;;;;;111.20;40.53;;;;;;;0.51;100.00;100098.31;5055316;28;20036;-92
2023/02/16 05:07:04;;;;;;;99.45;39.92;;;;;;;0.48;100.00;100085.16;5054722;28;20037;-93
2023/02/16 05:09:30;;;;;;;106.50;39.67;;;;;;;0.61;100.00;100103.06;5055017;28;20040;-92
2023/02/16 05:14:57;;;;;;;97.60;39.28;;;;;;;0.60;100.00;100103.88;5138380;27;20361;-94
2023/02/16 05:17:25;;;;;;;106.97;40.47;;;;;;;0.54;100.00;100106.31;5104971;28;20032;-93
2023/02/16 05:19:52;;;;;;;113.32;41.45;;;;;;;0.43;100.00;100094.53;5100937;28;20043;-92
2023/02/16 05:22:19;;;;;;;109.85;41.67;;;;;;;0.37;100.00;100097.88;5108048;28;20069;-93
2023/02/16 05:24:45;;;;;;;101.63;39.20;;;;;;;0.28;100.00;100079.19;5116460;28;20040;-92
2023/02/16 05:27:13;;;;;;;108.82;39.42;;;;;;;0.32;100.00;100082.81;5103228;28;20491;-94
2023/02/16 05:29:39;;;;;;;105.35;37.15;;;;;;;0.36;100.00;100093.44;5105620;28;20036;-94
2023/02/16 05:32:06;;;;;;;117.40;39.22;;;;;;;0.42;100.00;100102.38;5105744;28;20086;-93
2023/02/16 05:34:32;;;;;;;100.75;37.78;;;;;;;0.39;100.00;100101.44;5107335;28;20036;-94
2023/02/16 05:36:58;;;;;;;108.72;37.25;;;;;;;0.40;100.00;100102.31;5102975;28;20462;-93
2023/02/16 05:39:24;;;;;;;101.88;37.60;;;;;;;0.27;100.00;100100.97;5103933;28;20043;-92
2023/02/16 05:41:50;;;;;;;100.70;37.95;;;;;;;0.35;100.00;100109.13;5113230;28;20047;-93
2023/02/16 05:44:16;;;;;;;96.15;37.97;;;;;;;0.35;100.00;100094.28;5107903;28;20036;-95
2023/02/16 05:46:42;;;;;;;102.18;37.35;;;;;;;0.41;100.00;100109.31;5104880;28;20128;-92
2023/02/16 05:49:09;;;;;;;100.70;37.95;;;;;;;0.37;100.00;100099.59;5106939;28;20043;-94
2023/02/16 05:51:35;;;;;;;110.85;38.97;;;;;;;0.48;100.00;100113.94;5106977;28;20058;-93
2023/02/16 05:54:01;;;;;;;97.53;36.75;;;;;;;0.41;100.00;100106.69;5112901;28;20042;-94
2023/02/16 05:56:28;;;;;;;93.78;34.92;;;;;;;0.30;100.00;100105.44;5109395;28;20032;-92
2023/02/16 05:58:54;;;;;;;104.18;39.13;;;;;;;0.28;100.00;100102.75;5107687;28;20435;-95
2023/02/16 06:01:20;;;;;;;106.82;39.05;;;;;;;0.26;100.00;100127.06;5111899;28;20139;-92
2023/02/16 06:03:46;;;;;;;105.13;41.67;;;;;;;0.06;100.00;100122.00;5102203;28;20037;-94
2023/02/16 06:06:14;;;;;;;102.93;41.10;;;;;;;-0.01;100.00;100120.00;5102548;28;20040;-93
2023/02/16 06:08:40;;;;;;;120.70;41.22;;;;;;;-0.07;100.00;100115.44;5098979;28;20093;-92
2023/02/16 06:11:34;;;;;;;137.30;46.53;;;;;;;-0.15;100.00;100118.59;5107858;28;20031;-93
2023/02/16 06:13:56;;;;;;;125.32;41.47;;;;;;;-0.24;100.00;100116.53;5096386;28;20044;-92
2023/02/16 06:16:23;;;;;;;98.43;39.33;;;;;;;-0.14;100.00;100149.16;5109079;28;20501;-92
2023/02/16 06:18:49;;;;;;;107.85;40.88;;;;;;;-0.29;100.00;100134.66;5106265;28;20043;-93
2023/02/16 06:21:16;;;;;;;113.95;40.38;;;;;;;-0.24;100.00;100148.81;5110110;28;20050;-92
2023/02/16 06:23:42;;;;;;;116.47;41.25;;;;;;;-0.19;100.00;100156.84;5115171;28;20069;-94
2023/02/16 06:26:08;;;;;;;109.20;39.67;;;;;;;-0.19;100.00;100158.56;5096177;28;20040;-92
2023/02/16 06:28:34;;;;;;;104.68;36.75;;;;;;;-0.09;100.00;100169.41;5093778;28;20043;-91
2023/02/16 06:31:00;;;;;;;100.03;36.33;;;;;;;-0.05;100.00;100165.19;5091349;28;20047;-92
2023/02/16 06:33:25;;;;;;;99.00;37.20;;;;;;;-0.08;100.00;100158.13;5086603;28;20032;-92
2023/02/16 06:35:51;;;;;;;103.70;38.42;;;;;;;0.07;100.00;100175.22;5096090;28;20044;-92
2023/02/16 06:38:18;;;;;;;109.95;38.72;;;;;;;-0.03;100.00;100140.00;5095783;28;20043;-91
2023/02/16 06:40:44;;;;;;;109.38;39.75;;;;;;;0.12;100.00;100163.22;5089496;28;20045;-93
2023/02/16 06:43:10;;;;;;;110.85;40.38;;;;;;;0.21;100.00;100160.91;5089768;28;20151;-93
2023/02/16 06:45:36;;;;;;;109.90;41.45;;;;;;;0.33;100.00;100164.00;5085194;28;20036;-93
2023/02/16 06:48:02;;;;;;;122.40;41.70;;;;;;;0.26;100.00;100150.63;5092179;28;20046;-91
2023/02/16 06:50:28;;;;;;;116.53;39.65;;;;;;;0.46;100.00;100174.91;5090953;28;20062;-92
2023/02/16 06:52:53;;;;;;;130.50;44.22;;;;;;;0.64;100.00;100182.53;5084849;28;20043;-94
2023/02/16 06:55:21;;;;;;;133.40;44.85;;;;;;;0.60;100.00;100165.81;5096164;28;20035;-93
2023/02/16 06:57:47;;;;;;;121.32;43.20;;;;;;;0.75;100.00;100184.66;5091729;28;20135;-92
2023/02/16 07:00:14;;;;;;;112.63;42.65;;;;;;;0.76;100.00;100170.75;5090459;28;20071;-93
2023/02/16 07:02:42;;;;;;;118.03;45.80;;;;;;;0.82;100.00;100181.47;5094623;28;20496;-92
2023/02/16 07:05:07;;;;;;;131.45;47.35;;;;;;;0.96;100.00;100183.66;5096845;28;20083;-93
2023/02/16 07:07:33;;;;;;;131.95;50.55;;;;;;;1.03;100.00;100180.38;5095082;28;20049;-93
2023/02/16 07:10:01;;;;;;;135.70;51.80;;;;;;;1.06;100.00;100182.22;5093132;28;20058;-92
2023/02/16 07:12:28;;;;;;;155.05;56.35;;;;;;;0.93;100.00;100162.56;5093654;28;20035;-92
2023/02/16 07:14:54;;;;;;;150.98;55.42;;;;;;;0.91;100.00;100149.44;5086690;28;20044;-91
2023/02/16 07:17:20;;;;;;;197.57;63.30;;;;;;;0.98;100.00;100156.66;5092712;28;20032;-92
2023/02/16 07:19:46;;;;;;;254.95;74.88;;;;;;;1.15;100.00;100177.28;5090647;28;20481;-93
2023/02/16 07:22:12;;;;;;;217.63;68.93;;;;;;;1.35;100.00;100197.19;5093244;28;20051;-93
2023/02/16 07:24:38;;;;;;;196.25;64.80;;;;;;;1.36;100.00;100184.97;5081095;28;20036;-95
2023/02/16 07:27:04;;;;;;;167.43;57.58;;;;;;;1.33;100.00;100169.16;5093854;28;20457;-93
2023/02/16 07:29:31;;;;;;;162.77;56.95;;;;;;;1.33;100.00;100164.78;5086885;28;20040;-92
2023/02/16 07:31:57;;;;;;;172.10;59.78;;;;;;;1.42;100.00;100170.31;5092245;28;20055;-92
2023/02/16 07:34:23;;;;;;;152.55;57.88;;;;;;;1.58;100.00;100179.59;5091706;28;20052;-94
2023/02/16 07:36:49;;;;;;;158.98;55.45;;;;;;;1.87;100.00;100197.06;5081580;28;20040;-92
2023/02/16 07:39:15;;;;;;;156.68;56.28;;;;;;;1.88;100.00;100183.09;5086387;28;20046;-93
2023/02/16 07:41:41;;;;;;;151.77;55.33;;;;;;;1.98;100.00;100177.31;5092906;28;20040;-93
2023/02/16 07:44:07;;;;;;;154.75;56.92;;;;;;;2.22;100.00;100180.63;5092753;28;20032;-91
2023/02/16 07:46:34;;;;;;;160.27;57.72;;;;;;;2.36;100.00;100174.88;5094130;28;20110;-92
2023/02/16 07:49:00;;;;;;;152.77;55.67;;;;;;;2.51;100.00;100177.94;5091539;28;20040;-92
2023/02/16 07:51:29;;;;;;;147.35;54.65;;;;;;;2.79;100.00;100200.59;5090591;28;20086;-91
2023/02/16 07:53:55;;;;;;;145.70;53.13;;;;;;;2.94;100.00;100201.88;5095585;28;20481;-94
2023/02/16 07:56:23;;;;;;;146.38;54.63;;;;;;;3.13;100.00;100204.13;5088917;28;20275;-92
2023/02/16 07:58:50;;;;;;;143.73;54.03;;;;;;;3.20;100.00;100186.78;5094615;28;20135;-93
2023/02/16 08:01:16;;;;;;;160.90;54.47;;;;;;;3.35;99.58;100192.44;5088893;28;20059;-91
2023/02/16 08:03:43;;;;;;;149.73;54.97;;;;;;;3.50;98.25;100200.69;5088909;28;20081;-91
2023/02/16 08:06:10;;;;;;;135.40;52.53;;;;;;;3.61;97.13;100207.97;5096391;28;20131;-92
2023/02/16 08:08:36;;;;;;;149.52;53.97;;;;;;;3.58;96.03;100178.94;5092647;28;20044;-92
2023/02/16 08:11:07;;;;;;;161.07;57.03;;;;;;;3.77;93.62;100199.56;5086226;28;20059;-93
2023/02/16 08:13:33;;;;;;;172.15;59.20;;;;;;;3.72;93.78;100190.69;5087838;28;20153;-90
2023/02/16 08:15:59;;;;;;;173.90;61.28;;;;;;;3.84;93.37;100201.50;5092221;28;20498;-92
2023/02/16 08:18:25;;;;;;;182.57;61.35;;;;;;;3.84;93.69;100185.72;5087787;28;20590;-92
2023/02/16 08:20:52;;;;;;;175.57;58.58;;;;;;;4.15;92.83;100222.34;5094829;28;20074;-93
2023/02/16 08:23:19;;;;;;;137.00;52.03;;;;;;;4.19;92.44;100204.03;5091424;28;20086;-94
2023/02/16 08:25:45;;;;;;;151.90;53.92;;;;;;;4.27;91.47;100199.81;5091573;28;20067;-93
2023/02/16 08:28:13;;;;;;;158.32;55.72;;;;;;;4.26;89.96;100189.25;5088775;28;20513;-93
2023/02/16 08:30:39;;;;;;;148.23;52.90;;;;;;;4.30;89.08;100189.34;5086119;28;20047;-93
2023/02/16 08:33:05;;;;;;;162.52;57.00;;;;;;;4.20;89.35;100200.53;5087529;28;20044;-92
2023/02/16 08:35:31;;;;;;;156.60;54.40;;;;;;;4.45;91.28;100227.41;5096445;28;20050;-93
2023/02/16 08:37:58;;;;;;;162.80;58.72;;;;;;;4.51;89.05;100206.44;5089590;28;20064;-93
2023/02/16 08:40:25;;;;;;;150.25;58.08;;;;;;;4.60;88.28;100204.00;5089231;28;20036;-93
2023/02/16 08:42:51;;;;;;;160.38;57.95;;;;;;;4.80;87.95;100212.28;5087052;28;20044;-94
2023/02/16 08:45:17;;;;;;;167.68;56.78;;;;;;;4.87;86.87;100198.38;5086953;28;20036;-92
2023/02/16 08:47:43;;;;;;;152.80;56.25;;;;;;;4.81;85.58;100231.63;5087278;28;20074;-93
2023/02/16 08:50:10;;;;;;;173.52;57.88;;;;;;;4.54;87.92;100230.22;5089675;28;20142;-94
2023/02/16 08:52:36;;;;;;;153.38;56.60;;;;;;;4.42;89.33;100216.78;5089382;28;20105;-93
2023/02/16 08:55:03;;;;;;;147.25;55.10;;;;;;;4.69;89.10;100222.63;5088403;28;20683;-92
2023/02/16 08:57:32;;;;;;;161.45;52.67;;;;;;;4.93;87.84;100211.66;5085911;28;20046;-92
2023/02/16 09:02:59;;;;;;;157.32;56.25;;;;;;;5.43;85.14;100241.56;5133193;27;20384;-92
2023/02/16 09:05:27;;;;;;;151.65;57.28;;;;;;;5.53;83.69;100228.56;5102914;28;20055;-94
2023/02/16 09:07:53;;;;;;;160.55;57.67;;;;;;;5.66;84.11;100234.03;5100695;28;20493;-93
2023/02/16 09:10:21;;;;;;;168.95;62.05;;;;;;;5.82;83.78;100221.97;5106187;28;20043;-93
2023/02/16 09:12:48;;;;;;;159.02;59.20;;;;;;;6.01;82.70;100213.50;5106688;28;20044;-94
2023/02/16 09:15:14;;;;;;;186.77;61.45;;;;;;;6.20;80.36;100227.84;5108438;28;20032;-95
2023/02/16 09:17:41;;;;;;;166.52;62.40;;;;;;;6.20;79.60;100214.63;5102988;28;20073;-94
2023/02/16 09:20:09;;;;;;;153.77;56.60;;;;;;;6.17;79.45;100226.03;5107096;28;20047;-94
2023/02/16 09:22:38;;;;;;;150.25;58.85;;;;;;;6.19;81.05;100233.13;5105666;28;20040;-92
2023/02/16 09:25:05;;;;;;;156.45;57.67;;;;;;;6.44;80.83;100237.88;5110816;28;20493;-94
2023/02/16 09:27:31;;;;;;;166.73;55.33;;;;;;;6.58;80.33;100228.34;5108201;28;20044;-93
2023/02/16 09:29:57;;;;;;;143.65;52.83;;;;;;;6.88;81.44;100226.06;5104861;28;20397;-92
2023/02/16 09:32:27;;;;;;;148.18;55.22;;;;;;;7.13;81.05;100222.78;5100349;28;20090;-93
2023/02/16 09:34:53;;;;;;;155.77;53.33;;;;;;;7.25;79.16;100215.88;5100504;28;20134;-95
2023/02/16 09:37:22;;;;;;;138.57;49.50;;;;;;;7.49;79.45;100242.56;5106507;28;20048;-94
2023/02/16 09:39:49;;;;;;;132.25;45.88;;;;;;;7.68;79.45;100258.59;5107951;28;20451;-93
2023/02/16 09:42:29;;;;;;;129.70;45.33;;;;;;;7.61;81.93;100237.38;5102671;28;20040;-94
2023/02/16 09:45:04;;;;;;;133.75;42.47;;;;;;;7.80;81.28;100245.44;5106122;28;20067;-92
2023/02/16 09:47:32;;;;;;;126.57;45.33;;;;;;;7.82;81.46;100257.81;5101852;28;20036;-93
2023/02/16 09:50:02;;;;;;;125.83;45.40;;;;;;;7.80;83.56;100256.03;5096860;28;20051;-93
2023/02/16 09:52:35;;;;;;;122.40;42.30;;;;;;;7.83;83.34;100226.94;5110993;28;20501;-96
2023/02/16 09:55:04;;;;;;;134.52;46.67;;;;;;;7.84;83.28;100260.50;5100779;28;20489;-94
2023/02/16 09:57:45;;;;;;;130.10;45.95;;;;;;;7.75;85.34;100260.44;5100996;28;20041;-92
2023/02/16 10:00:22;;;;;;;131.95;44.30;;;;;;;7.87;84.59;100247.28;5100606;28;20408;-93
2023/02/16 10:02:54;;;;;;;131.13;44.05;;;;;;;8.04;84.27;100250.03;5111000;28;20047;-93
2023/02/16 10:05:29;;;;;;;123.88;41.55;;;;;;;8.08;84.05;100256.25;5095617;28;20047;-93
2023/02/16 10:08:04;;;;;;;125.97;43.92;;;;;;;7.94;86.38;100246.44;5099989;28;20035;-93
2023/02/16 10:10:39;;;;;;;130.50;43.38;;;;;;;7.89;87.21;100234.91;5105195;28;20082;-92
2023/02/16 10:13:14;;;;;;;117.75;40.78;;;;;;;8.24;85.97;100244.88;5101185;28;20062;-94
2023/02/16 10:15:44;;;;;;;142.30;44.67;;;;;;;8.19;86.64;100252.78;5088667;28;20097;-93
2023/02/16 10:18:19;;;;;;;138.70;43.58;;;;;;;8.27;87.23;100231.66;5090737;28;20040;-94
2023/02/16 10:20:51;;;;;;;125.90;42.97;;;;;;;8.35;88.53;100248.50;5091233;28;20107;-94
2023/02/16 10:23:39;;;;;;;122.28;41.40;;;;;;;8.41;88.70;100230.00;5094978;28;20516;-94
2023/02/16 10:26:13;;;;;;;126.03;40.72;;;;;;;8.53;89.41;100218.56;5082924;28;20058;-93
2023/02/16 10:28:45;;;;;;;133.57;43.92;;;;;;;8.93;88.32;100250.53;5079711;28;20052;-94
2023/02/16 10:31:15;;;;;;;142.05;41.65;;;;;;;8.66;89.47;100223.94;5091424;28;20047;-96
2023/02/16 10:33:43;;;;;;;123.68;39.97;;;;;;;8.65;89.97;100217.72;5093706;28;20516;-92
2023/02/16 10:36:20;;;;;;;130.88;40.38;;;;;;;9.10;89.28;100239.09;5088843;28;20040;-94
2023/02/16 10:38:56;;;;;;;133.40;41.13;;;;;;;9.38;87.63;100242.69;5096804;28;20051;-94
2023/02/16 10:41:31;;;;;;;127.00;41.40;;;;;;;9.65;86.32;100236.53;5093421;28;20048;-93
2023/02/16 10:44:02;;;;;;;126.40;39.55;;;;;;;9.76;84.97;100245.38;5096309;28;20048;-94
2023/02/16 10:46:33;;;;;;;120.18;40.20;;;;;;;9.52;86.59;100224.09;5097123;28;20051;-94
2023/02/16 10:49:00;;;;;;;117.85;38.78;;;;;;;9.38;86.78;100213.47;5082344;28;20045;-94
2023/02/16 10:51:32;;;;;;;122.00;39.65;;;;;;;9.34;87.59;100230.28;5083983;28;20075;-93
2023/02/16 10:54:03;;;;;;;118.07;39.33;;;;;;;9.42;86.97;100220.56;5079915;28;20123;-95
2023/02/16 10:56:46;;;;;;;124.18;43.20;;;;;;;9.24;87.45;100213.47;5091393;28;20041;-94
2023/02/16 10:59:16;;;;;;;124.35;41.47;;;;;;;9.42;86.27;100217.91;5094784;28;20040;-93
2023/02/16 11:01:44;;;;;;;122.75;40.45;;;;;;;9.53;86.13;100201.97;5090356;28;20044;-93
2023/02/16 11:04:28;;;;;;;123.53;40.03;;;;;;;9.85;84.67;100229.41;5095368;28;20044;-95
2023/02/16 11:07:02;;;;;;;126.60;41.90;;;;;;;9.85;84.39;100221.44;5096302;28;20078;-93
2023/02/16 11:09:30;;;;;;;117.38;39.13;;;;;;;9.76;84.44;100196.66;5089557;28;20127;-94
2023/02/16 11:11:55;;;;;;;132.98;42.88;;;;;;;9.82;83.83;100201.97;5095008;28;20493;-95
2023/02/16 11:14:27;;;;;;;126.32;42.88;;;;;;;9.81;84.60;100222.34;5089187;28;20127;-94
2023/02/16 11:17:06;;;;;;;107.28;36.80;;;;;;;9.84;84.95;100216.13;5086299;28;20421;-95
2023/02/16 11:19:33;;;;;;;;;;;;;;;9.90;83.12;100221.44;5089626;28;20048;-93
2023/02/16 11:21:59;;;;;;;109.05;37.65;;;;;;;9.73;83.80;100183.38;5085814;28;19951;-94
2023/02/16 11:24:27;;;;;;;96.72;34.47;;;;;;;9.86;83.42;100185.13;5087368;28;20040;-95
2023/02/16 11:27:05;;;;;;;106.78;36.25;;;;;;;10.15;82.74;100197.47;5092924;28;20075;-92
2023/02/16 11:29:32;;;;;;;104.90;36.67;;;;;;;10.30;81.80;100201.91;5091189;28;20054;-95
2023/02/16 11:32:05;;;;;;;100.60;35.50;;;;;;;10.45;81.90;100208.06;5087690;28;20766;-91
2023/02/16 11:34:33;;;;;;;91.40;35.42;;;;;;;10.42;79.90;100185.91;5089378;28;20056;-94
2023/02/16 11:37:06;;;;;;;90.30;35.10;;;;;;;10.37;80.41;100182.41;5085697;28;20047;-94
2023/02/16 11:39:36;;;;;;;97.05;36.92;;;;;;;10.43;79.87;100183.25;5082398;28;20068;-92
2023/02/16 11:42:07;;;;;;;94.45;35.30;;;;;;;10.47;78.83;100202.72;5084323;28;20089;-93
2023/02/16 11:44:36;;;;;;;96.72;36.55;;;;;;;10.31;79.39;100180.63;5085294;28;20094;-92
2023/02/16 11:47:05;;;;;;;84.80;34.23;;;;;;;10.33;79.48;100172.66;5091211;28;20393;-93
2023/02/16 11:49:34;;;;;;;81.43;33.08;;;;;;;10.34;78.95;100163.78;5089351;28;20282;-95
2023/02/16 11:52:18;;;;;;;82.68;34.70;;;;;;;10.52;78.91;100173.44;5085351;28;20040;-94
2023/02/16 11:54:47;;;;;;;85.57;35.42;;;;;;;10.65;78.91;100172.53;5087025;28;20052;-92
2023/02/16 11:57:23;;;;;;;78.38;33.72;;;;;;;10.79;78.37;100170.66;5087301;28;20045;-93